createdAt,value
2019-03-20T00:00:53.557Z,99.90
2019-03-20T00:02:49.104Z,99.90
2019-03-20T00:04:49.827Z,99.90
2019-03-20T00:06:39.884Z,99.90
2019-03-20T00:08:34.705Z,99.90
2019-03-20T00:10:29.123Z,99.90
2019-03-20T00:12:24.485Z,99.90
2019-03-20T00:14:19.924Z,99.90
2019-03-20T00:16:14.724Z,99.90
2019-03-20T00:18:09.520Z,99.90
2019-03-20T00:20:05.230Z,99.90
2019-03-20T00:22:00.483Z,99.90
2019-03-20T00:23:55.228Z,99.90
2019-03-20T00:25:49.793Z,99.90
2019-03-20T00:27:46.156Z,99.90
2019-03-20T00:29:40.781Z,99.90
2019-03-20T00:31:35.053Z,99.90
2019-03-20T00:33:30.042Z,99.90
2019-03-20T00:35:24.151Z,99.90
2019-03-20T00:37:18.599Z,99.90
2019-03-20T00:39:12.657Z,99.90
2019-03-20T00:41:07.975Z,99.90
2019-03-20T00:43:02.853Z,99.90
2019-03-20T00:44:58.135Z,99.90
2019-03-20T00:46:53.168Z,99.90
2019-03-20T00:48:47.824Z,99.90
2019-03-20T00:50:42.528Z,99.90
2019-03-20T00:52:37.560Z,99.90
2019-03-20T00:54:32.631Z,99.90
2019-03-20T00:56:27.259Z,99.90
2019-03-20T00:58:23.254Z,99.90
2019-03-20T01:00:19.535Z,99.90
2019-03-20T01:02:14.180Z,99.90
2019-03-20T01:04:08.861Z,99.90
2019-03-20T01:06:03.545Z,99.90
2019-03-20T01:07:58.292Z,99.90
2019-03-20T01:09:52.283Z,99.90
2019-03-20T01:11:46.467Z,99.90
2019-03-20T01:13:40.471Z,99.90
2019-03-20T01:15:34.522Z,99.90
2019-03-20T01:17:28.716Z,99.90
2019-03-20T01:19:23.209Z,99.90
2019-03-20T01:21:18.142Z,99.90
2019-03-20T01:23:12.907Z,99.90
2019-03-20T01:25:07.054Z,99.90
2019-03-20T01:27:03.081Z,99.90
2019-03-20T01:28:58.375Z,99.90
2019-03-20T01:30:52.532Z,99.90
2019-03-20T01:32:47.019Z,99.90
2019-03-20T01:34:41.819Z,99.90
2019-03-20T01:36:36.674Z,99.90
2019-03-20T01:38:31.155Z,99.90
2019-03-20T01:40:25.986Z,99.90
2019-03-20T01:42:20.057Z,99.90
2019-03-20T01:44:14.995Z,99.90
2019-03-20T01:46:09.560Z,99.90
2019-03-20T01:48:04.849Z,99.90
2019-03-20T01:49:59.769Z,99.90
2019-03-20T01:51:54.915Z,99.90
2019-03-20T01:53:50.047Z,99.90
2019-03-20T01:55:45.768Z,99.90
2019-03-20T01:57:40.575Z,99.90
2019-03-20T01:59:35.688Z,99.90
2019-03-20T02:01:30.707Z,99.90
2019-03-20T02:03:25.081Z,99.90
2019-03-20T02:05:19.672Z,99.90
2019-03-20T02:07:14.731Z,99.90
2019-03-20T02:09:09.148Z,99.90
2019-03-20T02:11:04.105Z,99.90
2019-03-20T02:12:58.857Z,99.90
2019-03-20T02:14:53.470Z,99.90
2019-03-20T02:16:48.313Z,99.90
2019-03-20T02:18:43.389Z,99.90
2019-03-20T02:20:38.059Z,99.90
2019-03-20T02:22:31.923Z,99.90
2019-03-20T02:24:29.192Z,99.90
2019-03-20T02:26:24.055Z,99.90
2019-03-20T02:28:18.106Z,99.90
2019-03-20T02:30:15.504Z,99.90
2019-03-20T02:32:11.057Z,99.90
2019-03-20T02:34:06.075Z,99.90
2019-03-20T02:36:00.672Z,99.90
2019-03-20T02:37:55.267Z,99.90
2019-03-20T02:39:50.087Z,99.90
2019-03-20T02:41:44.561Z,99.90
2019-03-20T02:43:39.893Z,99.90
2019-03-20T02:45:34.378Z,99.90
2019-03-20T02:47:28.473Z,99.90
2019-03-20T02:49:22.788Z,99.90
2019-03-20T02:51:17.450Z,99.90
2019-03-20T02:53:12.046Z,99.90
2019-03-20T02:55:08.185Z,99.90
2019-03-20T02:57:02.816Z,99.90
2019-03-20T02:58:57.584Z,99.90
2019-03-20T03:00:52.634Z,99.90
2019-03-20T03:02:47.249Z,99.90
2019-03-20T03:04:41.791Z,99.90
2019-03-20T03:06:37.102Z,99.90
2019-03-20T03:08:31.879Z,99.90
2019-03-20T03:10:26.879Z,99.90
2019-03-20T03:12:21.039Z,99.90
2019-03-20T03:14:17.476Z,99.90
2019-03-20T03:16:11.319Z,99.90
2019-03-20T03:18:06.041Z,99.90
2019-03-20T03:20:01.123Z,99.90
2019-03-20T03:21:57.131Z,99.90
2019-03-20T03:23:51.241Z,99.90
2019-03-20T03:25:46.338Z,99.90
2019-03-20T03:27:41.422Z,99.90
2019-03-20T03:29:35.631Z,99.90
2019-03-20T03:31:30.823Z,99.90
2019-03-20T03:33:25.109Z,99.90
2019-03-20T03:35:20.507Z,99.90
2019-03-20T03:37:14.923Z,99.90
2019-03-20T03:39:09.445Z,99.90
2019-03-20T03:41:03.389Z,99.90
2019-03-20T03:42:58.106Z,99.90
2019-03-20T03:44:52.419Z,99.90
2019-03-20T03:46:47.060Z,99.90
2019-03-20T03:48:43.045Z,99.90
2019-03-20T03:50:38.090Z,99.90
2019-03-20T03:52:32.795Z,99.90
2019-03-20T03:54:27.876Z,99.90
2019-03-20T03:56:22.860Z,99.90
2019-03-20T03:58:17.569Z,99.90
2019-03-20T04:00:13.529Z,99.90
2019-03-20T04:02:08.534Z,99.90
2019-03-20T04:04:03.100Z,99.90
2019-03-20T04:05:58.220Z,99.90
2019-03-20T04:07:53.876Z,99.90
2019-03-20T04:09:47.720Z,99.90
2019-03-20T04:11:42.623Z,99.90
2019-03-20T04:13:37.689Z,99.90
2019-03-20T04:15:32.353Z,99.90
2019-03-20T04:17:28.333Z,99.90
2019-03-20T04:19:22.389Z,99.90
2019-03-20T04:21:17.136Z,99.90
2019-03-20T04:23:11.836Z,99.90
2019-03-20T04:25:06.847Z,99.90
2019-03-20T04:27:01.145Z,99.90
2019-03-20T04:28:56.222Z,99.90
2019-03-20T04:30:50.705Z,99.90
2019-03-20T04:32:45.450Z,99.90
2019-03-20T04:34:40.408Z,99.90
2019-03-20T04:36:47.127Z,99.90
2019-03-20T04:38:31.950Z,99.90
2019-03-20T04:40:27.057Z,99.90
2019-03-20T04:42:22.006Z,99.90
2019-03-20T04:44:16.116Z,99.90
2019-03-20T04:46:10.676Z,99.90
2019-03-20T04:48:05.272Z,99.90
2019-03-20T04:50:01.392Z,99.90
2019-03-20T04:51:55.892Z,99.90
2019-03-20T04:53:50.607Z,99.90
2019-03-20T04:55:45.310Z,99.90
2019-03-20T04:57:40.339Z,99.90
2019-03-20T04:59:35.367Z,99.90
2019-03-20T05:01:29.343Z,99.90
2019-03-20T05:03:23.909Z,99.90
2019-03-20T05:05:18.602Z,99.90
2019-03-20T05:07:13.640Z,99.90
2019-03-20T05:09:08.499Z,99.90
2019-03-20T05:11:03.631Z,99.90
2019-03-20T05:12:59.577Z,99.90
2019-03-20T05:14:56.944Z,99.90
2019-03-20T05:16:51.726Z,99.90
2019-03-20T05:18:45.887Z,99.90
2019-03-20T05:20:40.810Z,99.90
2019-03-20T05:22:34.947Z,99.90
2019-03-20T05:24:29.626Z,99.90
2019-03-20T05:26:24.035Z,99.90
2019-03-20T05:28:19.022Z,99.90
2019-03-20T05:30:13.967Z,99.90
2019-03-20T05:32:08.533Z,99.90
2019-03-20T05:34:03.651Z,99.90
2019-03-20T05:35:58.542Z,99.90
2019-03-20T05:37:52.522Z,99.90
2019-03-20T05:39:46.687Z,99.90
2019-03-20T05:41:41.305Z,99.90
2019-03-20T05:43:36.250Z,99.90
2019-03-20T05:45:31.034Z,99.90
2019-03-20T05:47:25.395Z,99.90
2019-03-20T05:49:20.393Z,99.90
2019-03-20T05:51:15.387Z,99.90
2019-03-20T05:53:09.562Z,99.90
2019-03-20T05:55:03.793Z,99.90
2019-03-20T05:56:58.591Z,99.90
2019-03-20T05:58:52.844Z,99.90
2019-03-20T06:00:47.237Z,99.90
2019-03-20T06:02:41.422Z,99.90
2019-03-20T06:04:36.059Z,99.90
2019-03-20T06:06:31.233Z,99.90
2019-03-20T06:08:25.901Z,99.90
2019-03-20T06:10:20.685Z,99.90
2019-03-20T06:12:15.778Z,99.90
2019-03-20T06:14:10.019Z,99.90
2019-03-20T06:16:04.439Z,99.90
2019-03-20T06:17:59.364Z,99.90
2019-03-20T06:19:55.247Z,99.90
2019-03-20T06:21:50.836Z,99.90
2019-03-20T06:23:45.064Z,99.90
2019-03-20T06:25:39.335Z,99.90
2019-03-20T06:27:33.768Z,99.90
2019-03-20T06:29:27.983Z,99.90
2019-03-20T06:31:22.621Z,99.90
2019-03-20T06:33:17.547Z,99.90
2019-03-20T06:35:12.579Z,99.90
2019-03-20T06:37:06.883Z,99.90
2019-03-20T06:39:04.954Z,99.90
2019-03-20T06:40:59.090Z,99.90
2019-03-20T06:42:55.271Z,99.90
2019-03-20T06:44:49.857Z,99.90
2019-03-20T06:46:43.926Z,99.90
2019-03-20T06:48:38.623Z,99.90
2019-03-20T06:50:33.163Z,99.90
2019-03-20T06:52:27.186Z,99.90
2019-03-20T06:54:22.075Z,99.90
2019-03-20T06:56:17.434Z,99.90
2019-03-20T06:58:11.915Z,99.90
2019-03-20T07:00:50.219Z,99.90
2019-03-20T07:02:47.860Z,99.90
2019-03-20T07:05:16.499Z,99.90
2019-03-20T07:07:21.487Z,99.90
2019-03-20T07:09:26.916Z,99.90
2019-03-20T07:11:20.475Z,99.90
2019-03-20T07:13:17.106Z,99.90
2019-03-20T07:15:20.943Z,99.90
2019-03-20T07:17:19.948Z,99.90
2019-03-20T07:19:18.231Z,99.90
2019-03-20T07:21:12.668Z,99.90
2019-03-20T07:23:07.061Z,99.90
2019-03-20T07:25:01.411Z,99.90
2019-03-20T07:26:55.531Z,99.90
2019-03-20T07:28:50.627Z,99.90
2019-03-20T07:30:46.095Z,99.90
2019-03-20T07:32:40.985Z,99.90
2019-03-20T07:34:35.934Z,99.90
2019-03-20T07:36:30.707Z,99.90
2019-03-20T07:38:25.723Z,99.90
2019-03-20T07:40:19.830Z,99.90
2019-03-20T07:42:13.790Z,99.90
2019-03-20T07:44:08.706Z,99.90
2019-03-20T07:46:03.434Z,99.90
2019-03-20T07:47:57.708Z,99.90
2019-03-20T07:49:52.039Z,99.90
2019-03-20T07:51:46.035Z,99.90
2019-03-20T07:53:40.063Z,99.90
2019-03-20T07:55:35.065Z,99.90
2019-03-20T07:57:29.797Z,99.90
2019-03-20T07:59:24.819Z,99.90
2019-03-20T08:01:20.439Z,99.90
2019-03-20T08:03:16.431Z,99.90
2019-03-20T08:05:11.463Z,99.90
2019-03-20T08:07:06.801Z,99.90
2019-03-20T08:09:01.803Z,99.90
2019-03-20T08:10:57.382Z,99.90
2019-03-20T08:12:52.939Z,99.90
2019-03-20T08:14:47.824Z,99.90
2019-03-20T08:16:45.536Z,99.90
2019-03-20T08:18:40.207Z,99.90
2019-03-20T08:20:34.675Z,99.90
2019-03-20T08:22:29.593Z,99.90
2019-03-20T08:24:24.592Z,99.90
2019-03-20T08:26:19.586Z,99.90
2019-03-20T08:28:14.294Z,99.90
2019-03-20T08:30:10.944Z,99.90
2019-03-20T08:32:05.104Z,99.90
2019-03-20T08:33:59.194Z,99.90
2019-03-20T08:35:53.983Z,99.90
2019-03-20T08:37:48.950Z,99.90
2019-03-20T08:39:42.986Z,99.90
2019-03-20T08:41:37.776Z,99.90
2019-03-20T08:43:32.909Z,99.90
2019-03-20T08:45:26.941Z,99.90
2019-03-20T08:47:22.499Z,99.90
2019-03-20T08:49:16.732Z,99.90
2019-03-20T08:51:11.561Z,99.90
2019-03-20T08:53:06.593Z,99.90
2019-03-20T08:55:01.489Z,99.90
2019-03-20T08:56:56.654Z,99.90
2019-03-20T08:58:51.205Z,99.90
2019-03-20T09:00:46.411Z,99.90
2019-03-20T09:02:41.245Z,99.90
2019-03-20T09:04:35.971Z,98.00
2019-03-20T09:06:29.859Z,97.70
2019-03-20T09:08:29.238Z,99.60
2019-03-20T09:10:20.975Z,98.60
2019-03-20T09:12:15.717Z,97.80
2019-03-20T09:14:09.994Z,95.50
2019-03-20T09:16:04.343Z,92.40
2019-03-20T09:17:58.742Z,91.30
2019-03-20T09:19:52.983Z,94.50
2019-03-20T09:21:47.188Z,92.90
2019-03-20T09:23:43.011Z,88.30
2019-03-20T09:25:37.961Z,87.20
2019-03-20T09:27:33.133Z,89.30
2019-03-20T09:29:35.655Z,90.80
2019-03-20T09:31:25.572Z,90.90
2019-03-20T09:33:21.879Z,83.60
2019-03-20T09:35:16.555Z,87.70
2019-03-20T09:37:11.495Z,87.00
2019-03-20T09:39:08.795Z,82.80
2019-03-20T09:41:03.040Z,87.50
2019-03-20T09:42:58.200Z,85.30
2019-03-20T09:44:52.613Z,84.30
2019-03-20T09:46:48.229Z,81.30
2019-03-20T09:48:42.920Z,85.20
2019-03-20T09:50:37.675Z,77.80
2019-03-20T09:52:32.302Z,82.60
2019-03-20T09:54:26.353Z,76.90
2019-03-20T09:56:22.603Z,75.30
2019-03-20T09:58:17.057Z,79.50
2019-03-20T10:00:18.320Z,74.30
2019-03-20T10:02:13.031Z,75.00
2019-03-20T10:04:07.763Z,77.30
2019-03-20T10:06:02.487Z,75.60
2019-03-20T10:07:57.591Z,76.00
2019-03-20T10:09:52.584Z,75.50
2019-03-20T10:11:47.294Z,72.20
2019-03-20T10:13:41.610Z,72.70
2019-03-20T10:15:36.781Z,71.10
2019-03-20T10:17:31.785Z,71.70
2019-03-20T10:19:26.430Z,70.90
2019-03-20T10:21:20.999Z,71.70
2019-03-20T10:24:13.462Z,71.90
2019-03-20T10:26:08.265Z,72.80
2019-03-20T10:28:02.628Z,70.90
2019-03-20T10:29:57.639Z,70.50
2019-03-20T10:31:52.464Z,70.10
2019-03-20T10:33:46.412Z,70.30
2019-03-20T10:35:49.893Z,68.90
2019-03-20T10:37:36.645Z,70.30
2019-03-20T10:39:31.881Z,69.30
2019-03-20T10:41:26.775Z,69.80
2019-03-20T10:43:22.231Z,69.80
2019-03-20T10:45:16.972Z,67.80
2019-03-20T10:47:12.037Z,67.20
2019-03-20T10:49:07.209Z,68.20
2019-03-20T10:51:02.871Z,68.60
2019-03-20T10:52:57.269Z,68.90
2019-03-20T10:54:52.180Z,66.10
2019-03-20T10:56:48.748Z,65.90
2019-03-20T10:58:43.407Z,65.00
2019-03-20T11:00:40.684Z,59.00
2019-03-20T11:02:35.600Z,63.00
2019-03-20T11:04:30.233Z,60.70
2019-03-20T11:06:25.052Z,59.00
2019-03-20T11:08:19.808Z,59.20
2019-03-20T11:10:16.912Z,60.90
2019-03-20T11:12:11.502Z,58.60
2019-03-20T11:14:06.591Z,59.20
2019-03-20T11:16:01.251Z,57.90
2019-03-20T11:17:56.263Z,58.10
2019-03-20T11:19:51.157Z,58.30
2019-03-20T11:21:45.993Z,57.50
2019-03-20T11:23:40.814Z,58.30
2019-03-20T11:25:35.867Z,57.00
2019-03-20T11:27:29.994Z,57.10
2019-03-20T11:29:23.868Z,57.20
2019-03-20T11:31:18.550Z,57.20
2019-03-20T11:33:14.021Z,57.70
2019-03-20T11:35:09.229Z,57.50
2019-03-20T11:37:04.710Z,56.70
2019-03-20T11:38:59.460Z,56.60
2019-03-20T11:40:54.245Z,56.40
2019-03-20T11:42:49.102Z,57.40
2019-03-20T11:44:43.343Z,56.20
2019-03-20T11:46:41.995Z,56.30
2019-03-20T11:48:36.046Z,55.80
2019-03-20T11:50:36.200Z,56.20
2019-03-20T11:52:31.135Z,56.30
2019-03-20T11:54:25.990Z,56.50
2019-03-20T11:56:20.787Z,55.70
2019-03-20T11:58:15.983Z,56.10
2019-03-20T12:00:13.191Z,55.30
2019-03-20T12:02:08.018Z,55.80
2019-03-20T12:04:03.179Z,54.30
2019-03-20T12:05:57.864Z,54.70
2019-03-20T12:07:54.179Z,54.20
2019-03-20T12:09:49.497Z,54.70
2019-03-20T12:11:46.167Z,54.70
2019-03-20T12:13:41.069Z,54.30
2019-03-20T12:15:35.861Z,54.10
2019-03-20T12:17:30.616Z,54.30
2019-03-20T12:19:25.143Z,53.70
2019-03-20T12:21:20.106Z,53.10
2019-03-20T12:23:14.418Z,53.60
2019-03-20T12:25:11.060Z,54.20
2019-03-20T12:27:14.691Z,54.10
2019-03-20T12:29:02.192Z,53.80
2019-03-20T12:30:57.066Z,53.50
2019-03-20T12:32:51.416Z,53.80
2019-03-20T12:34:46.351Z,52.90
2019-03-20T12:36:41.595Z,52.10
2019-03-20T12:38:36.923Z,52.00
2019-03-20T12:40:32.086Z,51.40
2019-03-20T12:42:27.328Z,52.50
2019-03-20T12:44:21.888Z,52.60
2019-03-20T12:46:17.081Z,52.70
2019-03-20T12:48:11.350Z,52.00
2019-03-20T12:50:06.573Z,52.00
2019-03-20T12:52:01.670Z,52.00
2019-03-20T12:53:57.547Z,51.70
2019-03-20T12:55:52.706Z,51.50
2019-03-20T12:57:47.139Z,52.00
2019-03-20T12:59:42.248Z,52.00
2019-03-20T13:01:36.586Z,52.10
2019-03-20T13:03:31.099Z,52.10
2019-03-20T13:05:26.409Z,52.00
2019-03-20T13:07:21.590Z,51.60
2019-03-20T13:09:16.671Z,52.00
2019-03-20T13:11:10.955Z,51.80
2019-03-20T13:13:06.618Z,51.90
2019-03-20T13:15:01.871Z,52.40
2019-03-20T13:16:57.018Z,53.00
2019-03-20T13:18:53.272Z,53.40
2019-03-20T13:21:01.363Z,53.60
2019-03-20T13:22:59.361Z,53.20
2019-03-20T13:24:54.463Z,53.60
2019-03-20T13:26:49.419Z,53.60
2019-03-20T13:28:44.630Z,53.70
2019-03-20T13:30:42.288Z,53.70
2019-03-20T13:32:37.145Z,53.10
2019-03-20T13:34:31.450Z,52.80
2019-03-20T13:36:26.239Z,53.00
2019-03-20T13:38:20.939Z,52.60
2019-03-20T13:40:15.920Z,53.20
2019-03-20T13:42:10.703Z,53.30
2019-03-20T13:44:06.223Z,53.40
2019-03-20T13:46:00.419Z,53.60
2019-03-20T13:47:55.080Z,53.50
2019-03-20T13:49:49.935Z,53.80
2019-03-20T13:51:44.494Z,53.60
2019-03-20T13:53:38.876Z,54.00
2019-03-20T13:55:33.692Z,53.40
2019-03-20T13:57:28.037Z,52.80
2019-03-20T13:59:22.916Z,52.50
2019-03-20T14:01:17.187Z,53.20
2019-03-20T14:03:11.930Z,53.50
2019-03-20T14:05:07.452Z,54.00
2019-03-20T14:07:02.037Z,53.70
2019-03-20T14:08:56.660Z,53.40
2019-03-20T14:10:51.647Z,53.70
2019-03-20T14:12:45.760Z,53.80
2019-03-20T14:14:40.323Z,54.00
2019-03-20T14:16:34.554Z,54.60
2019-03-20T14:18:29.140Z,54.80
2019-03-20T14:20:24.309Z,54.90
2019-03-20T14:22:19.116Z,55.00
2019-03-20T14:24:14.179Z,55.00
2019-03-20T14:26:09.202Z,55.00
2019-03-20T14:28:04.100Z,55.20
2019-03-20T14:29:58.809Z,55.50
2019-03-20T14:31:53.558Z,55.50
2019-03-20T14:33:48.781Z,55.00
2019-03-20T14:35:43.596Z,55.00
2019-03-20T14:37:41.322Z,54.80
2019-03-20T14:39:35.564Z,55.40
2019-03-20T14:41:30.492Z,55.40
2019-03-20T14:43:24.787Z,55.40
2019-03-20T14:45:19.473Z,55.40
2019-03-20T14:47:14.268Z,55.40
2019-03-20T14:49:09.437Z,55.20
2019-03-20T14:51:04.310Z,55.30
2019-03-20T14:52:59.073Z,55.10
2019-03-20T14:54:53.985Z,55.30
2019-03-20T14:56:48.602Z,54.60
2019-03-20T14:58:43.871Z,54.70
2019-03-20T15:00:38.346Z,55.50
2019-03-20T15:02:32.741Z,55.60
2019-03-20T15:04:27.743Z,55.60
2019-03-20T15:06:22.590Z,56.10
2019-03-20T15:08:17.877Z,55.80
2019-03-20T15:10:14.353Z,55.40
2019-03-20T15:12:09.532Z,55.70
2019-03-20T15:14:04.688Z,55.70
2019-03-20T15:16:03.389Z,55.90
2019-03-20T15:17:57.544Z,56.20
2019-03-20T15:19:52.695Z,56.00
2019-03-20T15:21:47.394Z,56.10
2019-03-20T15:23:42.501Z,56.50
2019-03-20T15:25:36.695Z,56.50
2019-03-20T15:27:31.312Z,56.30
2019-03-20T15:29:25.809Z,56.20
2019-03-20T15:31:20.882Z,56.00
2019-03-20T15:33:15.829Z,56.30
2019-03-20T15:35:10.459Z,56.40
2019-03-20T15:37:05.788Z,56.50
2019-03-20T15:39:00.489Z,56.70
2019-03-20T15:40:56.595Z,56.90
2019-03-20T15:42:51.005Z,57.00
2019-03-20T15:44:45.706Z,57.20
2019-03-20T15:46:41.854Z,57.30
2019-03-20T15:48:36.664Z,57.50
2019-03-20T15:50:32.525Z,58.30
2019-03-20T15:52:27.709Z,58.40
2019-03-20T15:54:22.602Z,58.40
2019-03-20T15:56:17.147Z,58.30
2019-03-20T15:58:11.263Z,58.80
2019-03-20T16:00:06.615Z,59.40
2019-03-20T16:02:01.170Z,58.80
2019-03-20T16:03:56.290Z,58.80
2019-03-20T16:05:50.980Z,59.20
2019-03-20T16:07:45.140Z,59.30
2019-03-20T16:09:39.298Z,59.10
2019-03-20T16:11:34.054Z,59.00
2019-03-20T16:13:28.866Z,59.10
2019-03-20T16:15:23.021Z,59.50
2019-03-20T16:17:17.731Z,59.40
2019-03-20T16:19:12.147Z,59.50
2019-03-20T16:21:07.319Z,59.50
2019-03-20T16:23:02.475Z,59.80
2019-03-20T16:24:56.824Z,61.20
2019-03-20T16:26:51.305Z,61.20
2019-03-20T16:28:46.230Z,61.30
2019-03-20T16:30:41.291Z,61.30
2019-03-20T16:32:35.924Z,61.60
2019-03-20T16:34:29.718Z,61.90
2019-03-20T16:36:24.107Z,62.30
2019-03-20T16:38:19.667Z,63.20
2019-03-20T16:40:19.068Z,63.20
2019-03-20T16:42:13.963Z,63.40
2019-03-20T16:44:08.584Z,63.10
2019-03-20T16:46:03.106Z,63.10
2019-03-20T16:47:57.875Z,63.70
2019-03-20T16:49:52.682Z,64.70
2019-03-20T16:51:47.319Z,65.40
2019-03-20T16:53:42.312Z,64.80
2019-03-20T16:55:39.760Z,65.30
2019-03-20T16:57:34.689Z,65.20
2019-03-20T16:59:33.299Z,65.10
2019-03-20T17:01:28.080Z,65.90
2019-03-20T17:03:23.135Z,65.80
2019-03-20T17:05:18.228Z,66.00
2019-03-20T17:07:12.872Z,66.30
2019-03-20T17:09:08.146Z,66.90
2019-03-20T17:11:03.299Z,66.90
2019-03-20T17:12:58.001Z,67.70
2019-03-20T17:14:52.975Z,67.40
2019-03-20T17:16:47.958Z,67.90
2019-03-20T17:18:42.965Z,67.90
2019-03-20T17:20:41.978Z,67.70
2019-03-20T17:22:41.948Z,68.50
2019-03-20T17:24:33.234Z,68.50
2019-03-20T17:26:28.714Z,68.80
2019-03-20T17:28:23.537Z,68.80
2019-03-20T17:30:23.107Z,69.30
2019-03-20T17:32:18.198Z,70.20
2019-03-20T17:34:13.190Z,69.50
2019-03-20T17:36:08.495Z,70.40
2019-03-20T17:38:03.230Z,71.20
2019-03-20T17:39:58.709Z,70.80
2019-03-20T17:41:53.711Z,72.50
2019-03-20T17:43:48.507Z,71.90
2019-03-20T17:45:43.244Z,73.10
2019-03-20T17:47:38.262Z,72.60
2019-03-20T17:49:33.012Z,73.60
2019-03-20T17:51:27.068Z,73.40
2019-03-20T17:53:21.682Z,72.90
2019-03-20T17:55:16.687Z,73.50
2019-03-20T17:57:11.496Z,73.40
2019-03-20T17:59:06.645Z,73.60
2019-03-20T18:01:01.252Z,75.10
2019-03-20T18:02:55.719Z,73.60
2019-03-20T18:04:50.463Z,74.60
2019-03-20T18:06:45.351Z,75.20
2019-03-20T18:08:40.314Z,75.10
2019-03-20T18:10:35.332Z,75.30
2019-03-20T18:12:29.436Z,75.90
2019-03-20T18:14:23.523Z,76.60
2019-03-20T18:16:18.003Z,77.10
2019-03-20T18:18:13.093Z,80.90
2019-03-20T18:20:11.704Z,80.60
2019-03-20T18:22:06.585Z,81.10
2019-03-20T18:24:01.458Z,80.60
2019-03-20T18:25:58.256Z,78.90
2019-03-20T18:27:52.204Z,79.50
2019-03-20T18:29:46.873Z,79.60
2019-03-20T18:31:46.022Z,80.80
2019-03-20T18:33:37.420Z,80.50
2019-03-20T18:35:32.227Z,81.30
2019-03-20T18:37:26.418Z,81.00
2019-03-20T18:39:21.314Z,83.00
2019-03-20T18:41:16.774Z,82.30
2019-03-20T18:43:11.520Z,82.20
2019-03-20T18:45:06.328Z,82.60
2019-03-20T18:47:01.366Z,82.60
2019-03-20T18:48:55.401Z,83.20
2019-03-20T18:50:49.982Z,83.70
2019-03-20T18:52:44.133Z,83.90
2019-03-20T18:54:38.628Z,83.80
2019-03-20T18:56:33.604Z,84.20
2019-03-20T18:58:27.897Z,85.40
2019-03-20T19:00:24.450Z,85.00
2019-03-20T19:02:19.015Z,85.60
2019-03-20T19:04:14.026Z,85.80
2019-03-20T19:06:15.377Z,86.70
2019-03-20T19:10:04.884Z,85.90
2019-03-20T19:12:08.176Z,87.40
2019-03-20T19:13:55.814Z,86.40
2019-03-20T19:15:50.928Z,87.60
2019-03-20T19:17:45.520Z,87.30
2019-03-20T19:19:40.385Z,87.70
2019-03-20T19:21:35.567Z,87.00
2019-03-20T19:23:30.525Z,87.90
2019-03-20T19:25:25.632Z,86.80
2019-03-20T19:27:20.896Z,86.60
2019-03-20T19:29:14.980Z,87.20
2019-03-20T19:31:09.881Z,87.50
2019-03-20T19:33:04.905Z,87.60
2019-03-20T19:34:59.825Z,87.70
2019-03-20T19:36:54.694Z,88.90
2019-03-20T19:38:48.871Z,88.60
2019-03-20T19:40:44.062Z,88.40
2019-03-20T19:42:38.385Z,89.20
2019-03-20T19:44:32.999Z,89.60
2019-03-20T19:46:27.150Z,89.70
2019-03-20T19:48:22.283Z,90.10
2019-03-20T19:50:16.921Z,90.60
2019-03-20T19:52:18.136Z,90.00
2019-03-20T19:54:19.242Z,90.40
2019-03-20T19:56:13.693Z,90.50
2019-03-20T19:58:08.595Z,90.60
2019-03-20T20:00:04.878Z,90.60
2019-03-20T20:01:59.812Z,90.60
2019-03-20T20:04:00.883Z,90.50
2019-03-20T20:05:58.855Z,90.70
2019-03-20T20:07:54.113Z,91.10
2019-03-20T20:09:48.862Z,90.70
2019-03-20T20:11:43.163Z,90.80
2019-03-20T20:13:37.867Z,90.70
2019-03-20T20:15:32.866Z,91.00
2019-03-20T20:17:27.702Z,91.00
2019-03-20T20:19:22.540Z,91.30
2019-03-20T20:21:17.390Z,91.80
2019-03-20T20:23:11.666Z,92.00
2019-03-20T20:25:06.999Z,92.50
2019-03-20T20:27:01.099Z,92.30
2019-03-20T20:28:55.342Z,92.10
2019-03-20T20:30:50.267Z,91.90
2019-03-20T20:32:45.218Z,92.00
2019-03-20T20:34:39.958Z,92.20
2019-03-20T20:36:34.444Z,92.70
2019-03-20T20:38:28.527Z,92.70
2019-03-20T20:40:23.008Z,92.80
2019-03-20T20:42:18.098Z,93.20
2019-03-20T20:44:21.613Z,92.90
2019-03-20T20:46:12.466Z,92.90
2019-03-20T20:48:06.577Z,93.90
2019-03-20T20:50:01.566Z,93.60
2019-03-20T20:51:55.862Z,93.70
2019-03-20T20:53:49.932Z,93.60
2019-03-20T20:55:44.225Z,94.00
2019-03-20T20:57:38.598Z,94.00
2019-03-20T20:59:33.527Z,95.30
2019-03-20T21:01:30.267Z,95.30
2019-03-20T21:03:24.566Z,95.80
2019-03-20T21:05:18.536Z,96.30
2019-03-20T21:07:13.320Z,95.80
2019-03-20T21:09:08.585Z,95.80
2019-03-20T21:11:03.293Z,95.70
2019-03-20T21:12:58.232Z,95.80
2019-03-20T21:14:52.443Z,96.50
2019-03-20T21:16:47.422Z,96.10
2019-03-20T21:19:29.732Z,96.80
2019-03-20T21:21:29.194Z,97.10
2019-03-20T21:24:06.642Z,97.70
2019-03-20T21:26:02.335Z,98.00
2019-03-20T21:28:58.886Z,97.70
2019-03-20T21:31:17.494Z,97.80
2019-03-20T21:33:32.159Z,98.00
2019-03-20T21:36:04.336Z,98.80
2019-03-20T21:38:04.218Z,98.10
2019-03-20T21:39:58.839Z,98.70
2019-03-20T21:42:41.462Z,98.60
2019-03-20T21:45:19.272Z,98.80
2019-03-20T21:47:35.631Z,98.30
2019-03-20T21:49:30.202Z,98.40
2019-03-20T21:51:25.407Z,98.40
2019-03-20T21:53:25.999Z,98.70
2019-03-20T21:55:57.942Z,98.90
2019-03-20T21:58:13.686Z,99.60
2019-03-20T22:00:38.827Z,99.90
2019-03-20T22:02:43.577Z,99.90
2019-03-20T22:04:38.162Z,99.90
2019-03-20T22:07:05.586Z,99.90
2019-03-20T22:09:01.884Z,99.90
2019-03-20T22:11:38.690Z,99.90
2019-03-20T22:13:44.162Z,99.90
2019-03-20T22:16:08.063Z,99.90
2019-03-20T22:18:36.331Z,99.90
2019-03-20T22:20:49.872Z,99.90
2019-03-20T22:23:26.797Z,99.90
2019-03-20T22:26:03.920Z,99.90
2019-03-20T22:28:34.604Z,99.90
2019-03-20T22:30:29.998Z,99.90
2019-03-20T22:33:20.502Z,99.90
2019-03-20T22:35:38.393Z,99.90
2019-03-20T22:37:32.861Z,99.90
2019-03-20T22:40:13.799Z,99.90
2019-03-20T22:42:36.020Z,99.90
2019-03-20T22:44:30.645Z,99.90
2019-03-20T22:47:04.004Z,99.90
2019-03-20T22:49:25.343Z,99.90
2019-03-20T22:51:57.565Z,99.90
2019-03-20T22:54:21.750Z,99.90
2019-03-20T22:56:28.812Z,99.90
2019-03-20T22:58:42.320Z,99.90
2019-03-20T23:00:37.600Z,99.90
2019-03-20T23:03:06.414Z,99.90
2019-03-20T23:05:01.618Z,99.90
2019-03-20T23:06:56.874Z,99.90
2019-03-20T23:08:52.422Z,99.90
2019-03-20T23:10:48.899Z,99.90
2019-03-20T23:12:44.537Z,99.90
2019-03-20T23:14:39.225Z,99.90
2019-03-20T23:16:34.617Z,99.90
2019-03-20T23:18:30.055Z,99.90
2019-03-20T23:20:25.775Z,99.90
2019-03-20T23:22:20.391Z,99.90
2019-03-20T23:24:15.963Z,99.90
2019-03-20T23:26:11.397Z,99.90
2019-03-20T23:28:06.644Z,99.90
2019-03-20T23:30:02.255Z,99.90
2019-03-20T23:31:58.855Z,99.90
2019-03-20T23:33:54.958Z,99.90
2019-03-20T23:35:50.494Z,99.90
2019-03-20T23:37:45.183Z,99.90
2019-03-20T23:39:39.986Z,99.90
2019-03-20T23:41:34.804Z,99.90
2019-03-20T23:43:29.399Z,99.90
2019-03-20T23:45:24.114Z,99.90
2019-03-20T23:47:41.276Z,99.90
2019-03-20T23:49:36.149Z,99.90
2019-03-20T23:51:30.705Z,99.90
2019-03-20T23:53:25.440Z,99.90
2019-03-20T23:55:20.046Z,99.90
2019-03-20T23:57:15.749Z,99.90
2019-03-20T23:59:10.874Z,99.90
